Time;durP1;ratioP1;P1;durP2;ratioP2;P2;SDS_P1;SDS_P2;PMS_P1;PMS_P2;Temp;Humidity;BMP_temperature;BMP_pressure;BME280_temperature;BME280_humidity;BME280_pressure;Samples;Min_cycle;Max_cycle;Signal;HPM_P1;HPM_P2
2021/07/24 00:01:13;;;;;;;32.17;26.57;;;16.50;99.90;;;;;;5150316;27;20204;-81
2021/07/24 00:03:42;;;;;;;33.83;26.73;;;16.50;99.90;;;;;;5145098;27;20317;-83
2021/07/24 00:06:11;;;;;;;34.03;27.30;;;16.50;99.90;;;;;;5151442;27;20229;-85
2021/07/24 00:08:40;;;;;;;33.80;26.77;;;16.50;99.90;;;;;;5151549;27;20960;-82
2021/07/24 00:11:10;;;;;;;36.47;28.27;;;16.50;99.90;;;;;;5154478;27;20220;-80
2021/07/24 00:13:41;;;;;;;30.43;26.03;;;16.50;99.90;;;;;;5140567;27;20249;-83
2021/07/24 00:16:10;;;;;;;32.73;27.37;;;16.50;99.90;;;;;;5152468;27;20210;-86
2021/07/24 00:18:39;;;;;;;30.63;25.03;;;16.50;99.90;;;;;;5149334;27;20209;-84
2021/07/24 00:21:09;;;;;;;36.30;27.67;;;16.50;99.90;;;;;;5151489;27;20222;-85
2021/07/24 00:23:37;;;;;;;36.40;26.67;;;16.40;99.90;;;;;;5150578;27;20223;-80
2021/07/24 00:26:06;;;;;;;32.40;26.23;;;16.40;99.90;;;;;;5154224;27;20191;-82
2021/07/24 00:28:34;;;;;;;35.73;28.07;;;16.40;99.90;;;;;;5151026;27;20376;-83
2021/07/24 00:31:05;;;;;;;33.97;27.43;;;16.30;99.90;;;;;;5154964;27;20251;-83
2021/07/24 00:33:33;;;;;;;36.27;26.87;;;16.30;99.90;;;;;;5154346;27;20195;-82
2021/07/24 00:36:02;;;;;;;33.23;26.53;;;16.30;99.90;;;;;;5147319;27;20199;-84
2021/07/24 00:38:32;;;;;;;33.33;27.10;;;16.20;99.90;;;;;;5148895;27;20255;-83
2021/07/24 00:41:05;;;;;;;31.57;26.57;;;16.20;99.90;;;;;;5146897;27;20206;-86
2021/07/24 00:43:36;;;;;;;29.63;26.20;;;16.20;99.90;;;;;;5158901;27;20229;-83
2021/07/24 00:46:08;;;;;;;32.67;27.17;;;16.20;99.90;;;;;;5161326;27;20201;-82
2021/07/24 00:48:38;;;;;;;35.87;27.07;;;16.20;99.90;;;;;;5175103;27;20208;-82
2021/07/24 00:51:07;;;;;;;34.37;27.00;;;16.20;99.90;;;;;;5158195;27;21317;-80
2021/07/24 00:53:36;;;;;;;36.53;27.57;;;16.20;99.90;;;;;;5165329;27;20213;-83
2021/07/24 00:56:06;;;;;;;33.17;27.37;;;16.10;99.90;;;;;;5161545;27;20203;-83
2021/07/24 00:58:36;;;;;;;34.10;27.97;;;16.10;99.90;;;;;;5160060;27;20225;-81
2021/07/24 01:01:07;;;;;;;36.10;27.97;;;16.00;99.90;;;;;;5159655;27;20191;-82
2021/07/24 01:03:36;;;;;;;33.63;28.40;;;16.00;99.90;;;;;;5173513;27;20210;-81
2021/07/24 01:06:04;;;;;;;33.57;27.53;;;16.00;99.90;;;;;;5176292;27;20206;-84
2021/07/24 01:08:36;;;;;;;31.10;26.23;;;16.00;99.90;;;;;;5180824;27;20197;-86
2021/07/24 01:11:29;;;;;;;36.63;28.00;;;15.90;99.90;;;;;;5174369;27;20272;-80
2021/07/24 01:13:58;;;;;;;33.27;26.00;;;15.90;99.90;;;;;;5178412;27;20197;-83
2021/07/24 01:16:28;;;;;;;31.07;26.30;;;15.90;99.90;;;;;;5183282;27;20216;-83
2021/07/24 01:18:57;;;;;;;34.13;27.00;;;15.80;99.90;;;;;;5178870;27;20178;-81
2021/07/24 01:21:28;;;;;;;31.83;26.67;;;15.80;99.90;;;;;;5180734;27;20190;-81
2021/07/24 01:23:57;;;;;;;32.87;27.00;;;15.80;99.90;;;;;;5176168;27;20206;-82
2021/07/24 01:26:27;;;;;;;31.70;26.73;;;15.80;99.90;;;;;;5178633;27;20193;-84
2021/07/24 01:28:56;;;;;;;34.13;26.90;;;15.80;99.90;;;;;;5174453;27;20178;-83
2021/07/24 01:31:25;;;;;;;31.97;26.30;;;15.80;99.90;;;;;;5173572;27;20536;-81
2021/07/24 01:33:54;;;;;;;30.40;25.47;;;15.70;99.90;;;;;;5176397;27;20235;-85
2021/07/24 01:36:23;;;;;;;33.17;26.00;;;15.70;99.90;;;;;;5172601;27;20199;-84
2021/07/24 01:38:53;;;;;;;32.40;25.50;;;15.70;99.90;;;;;;5177680;27;20209;-82
2021/07/24 01:41:22;;;;;;;30.30;24.90;;;15.70;99.90;;;;;;5168491;27;20186;-84
2021/07/24 01:43:50;;;;;;;30.80;25.63;;;15.60;99.90;;;;;;5176018;27;20214;-84
2021/07/24 01:46:19;;;;;;;29.73;24.00;;;15.60;99.90;;;;;;5172241;27;20190;-86
2021/07/24 01:48:53;;;;;;;30.03;24.90;;;15.60;99.90;;;;;;5173444;27;20214;-85
2021/07/24 01:54:33;;;;;;;31.80;25.33;;;15.50;99.90;;;;;;5180959;27;20218;-83
2021/07/24 01:57:09;;;;;;;31.90;26.00;;;15.50;99.90;;;;;;5169681;27;20186;-83
2021/07/24 01:59:43;;;;;;;29.10;25.57;;;15.50;99.90;;;;;;5179296;27;20262;-85
2021/07/24 02:02:14;;;;;;;29.97;25.90;;;15.50;99.90;;;;;;5156982;27;20209;-85
2021/07/24 02:04:50;;;;;;;31.33;25.10;;;15.50;99.90;;;;;;5153604;27;20233;-85
2021/07/24 02:07:22;;;;;;;29.27;25.57;;;15.50;99.90;;;;;;5153801;27;20802;-87
2021/07/24 02:09:52;;;;;;;33.00;26.50;;;15.40;99.90;;;;;;5153746;27;20697;-84
2021/07/24 02:12:21;;;;;;;31.17;25.47;;;15.40;99.90;;;;;;5148790;27;20261;-87
2021/07/24 02:14:50;;;;;;;31.90;24.50;;;15.40;99.90;;;;;;5151786;27;20221;-86
2021/07/24 02:17:18;;;;;;;31.70;25.13;;;15.40;99.90;;;;;;5150318;27;20210;-84
2021/07/24 02:19:48;;;;;;;29.20;24.97;;;15.40;99.90;;;;;;5151578;27;20202;-83
2021/07/24 02:22:17;;;;;;;27.87;24.53;;;15.40;99.90;;;;;;5152792;27;20198;-83
2021/07/24 02:24:45;;;;;;;27.17;23.37;;;15.40;99.90;;;;;;5151248;27;20214;-84
2021/07/24 02:27:15;;;;;;;30.53;24.80;;;15.40;99.90;;;;;;5152531;27;20193;-83
2021/07/24 02:29:45;;;;;;;28.73;24.07;;;15.40;99.90;;;;;;5157908;27;20199;-84
2021/07/24 02:32:14;;;;;;;29.73;24.00;;;15.40;99.90;;;;;;5150794;27;20195;-83
2021/07/24 02:34:42;;;;;;;29.53;24.00;;;15.40;99.90;;;;;;5154689;27;20202;-85
2021/07/24 02:37:11;;;;;;;28.30;22.90;;;15.40;99.90;;;;;;5149250;27;20306;-81
2021/07/24 02:39:40;;;;;;;26.30;22.43;;;15.50;99.90;;;;;;5158381;27;20194;-82
2021/07/24 02:42:09;;;;;;;29.03;23.03;;;15.50;99.90;;;;;;5166331;27;20198;-83
2021/07/24 02:44:38;;;;;;;28.03;23.50;;;15.50;99.90;;;;;;5158610;27;20274;-86
2021/07/24 02:47:07;;;;;;;29.77;24.80;;;15.60;99.90;;;;;;5150900;27;20282;-81
2021/07/24 02:49:35;;;;;;;31.10;24.40;;;15.60;99.90;;;;;;5159462;27;20413;-84
2021/07/24 02:52:05;;;;;;;29.73;23.57;;;15.60;99.90;;;;;;5165646;27;20198;-83
2021/07/24 02:54:33;;;;;;;31.03;23.80;;;15.60;99.90;;;;;;5158837;27;20195;-83
2021/07/24 02:57:02;;;;;;;29.47;23.77;;;15.60;99.90;;;;;;5154538;27;20202;-81
2021/07/24 02:59:31;;;;;;;26.13;22.40;;;15.60;99.90;;;;;;5159675;27;20202;-83
2021/07/24 03:02:01;;;;;;;29.27;25.30;;;15.60;99.90;;;;;;5170403;27;20207;-80
2021/07/24 03:04:30;;;;;;;29.93;24.80;;;15.60;99.90;;;;;;5169956;27;20538;-84
2021/07/24 03:06:59;;;;;;;31.47;25.97;;;15.70;99.90;;;;;;5156179;27;20191;-82
2021/07/24 03:09:27;;;;;;;35.60;27.03;;;15.70;99.90;;;;;;5161713;27;20214;-81
2021/07/24 03:11:56;;;;;;;30.07;25.03;;;15.80;99.90;;;;;;5172636;27;20194;-81
2021/07/24 03:14:25;;;;;;;31.90;25.90;;;15.80;99.90;;;;;;5160006;27;20195;-83
2021/07/24 03:16:53;;;;;;;34.33;25.63;;;15.90;99.90;;;;;;5161138;27;20212;-83
2021/07/24 03:19:24;;;;;;;32.03;25.10;;;15.90;99.90;;;;;;5154530;27;20818;-85
2021/07/24 03:21:52;;;;;;;30.07;24.67;;;15.90;99.90;;;;;;5166811;27;20230;-84
2021/07/24 03:24:21;;;;;;;30.40;23.60;;;15.80;99.90;;;;;;5169690;27;20214;-82
2021/07/24 03:26:51;;;;;;;33.77;25.90;;;15.80;99.90;;;;;;5172545;27;20335;-85
2021/07/24 03:29:20;;;;;;;32.73;26.30;;;15.70;99.90;;;;;;5158852;27;20194;-83
2021/07/24 03:31:48;;;;;;;35.97;29.40;;;15.80;99.90;;;;;;5158724;27;20198;-81
2021/07/24 03:34:17;;;;;;;35.13;28.57;;;15.90;99.90;;;;;;5158144;27;20195;-83
2021/07/24 03:36:47;;;;;;;32.63;27.37;;;15.80;99.90;;;;;;5154321;27;20908;-80
2021/07/24 03:39:16;;;;;;;32.70;26.57;;;15.90;99.90;;;;;;5161992;27;20194;-81
2021/07/24 03:41:45;;;;;;;32.87;27.13;;;15.90;99.90;;;;;;5170227;27;20206;-81
2021/07/24 03:44:13;;;;;;;31.47;26.87;;;15.90;99.90;;;;;;5164210;27;20609;-81
2021/07/24 03:46:42;;;;;;;35.67;27.87;;;15.90;99.90;;;;;;5140326;27;20314;-80
2021/07/24 03:49:11;;;;;;;39.67;30.03;;;16.00;99.90;;;;;;5164264;27;20203;-80
2021/07/24 03:51:40;;;;;;;33.53;29.00;;;16.10;99.90;;;;;;5162096;27;20217;-80
2021/07/24 03:54:10;;;;;;;35.17;28.93;;;16.10;99.90;;;;;;5162285;27;20187;-80
2021/07/24 03:56:38;;;;;;;37.07;28.73;;;16.10;99.90;;;;;;5164310;27;20202;-82
2021/07/24 03:59:07;;;;;;;36.97;29.93;;;16.10;99.90;;;;;;5161981;27;20195;-83
2021/07/24 04:01:35;;;;;;;33.13;28.30;;;16.20;99.90;;;;;;5164131;27;20191;-81
2021/07/24 04:04:05;;;;;;;34.40;27.67;;;16.30;99.90;;;;;;5171775;27;20187;-81
2021/07/24 04:06:34;;;;;;;30.37;26.87;;;16.40;99.90;;;;;;5166093;27;20306;-81
2021/07/24 04:09:07;;;;;;;31.33;25.97;;;16.40;99.90;;;;;;5173632;27;20187;-82
2021/07/24 04:11:38;;;;;;;29.83;26.53;;;16.50;99.90;;;;;;5175380;27;20194;-80
2021/07/24 04:14:06;;;;;;;31.80;24.93;;;16.60;99.90;;;;;;5164835;27;20213;-82
2021/07/24 04:16:36;;;;;;;30.47;26.33;;;16.60;99.90;;;;;;5157986;27;20226;-82
2021/07/24 04:19:05;;;;;;;27.37;24.43;;;16.70;99.90;;;;;;5162146;27;20202;-81
2021/07/24 04:21:33;;;;;;;28.23;25.17;;;16.80;99.90;;;;;;5161943;27;20199;-82
2021/07/24 04:24:02;;;;;;;30.00;24.63;;;16.90;99.90;;;;;;5159946;27;20198;-82
2021/07/24 04:26:32;;;;;;;31.00;24.43;;;17.00;99.90;;;;;;5157468;27;20237;-83
2021/07/24 04:29:08;;;;;;;27.50;24.60;;;17.10;99.90;;;;;;5159508;27;20531;-84
2021/07/24 04:31:37;;;;;;;27.60;24.60;;;17.20;99.90;;;;;;5157842;27;20193;-83
2021/07/24 04:34:06;;;;;;;27.43;23.93;;;17.30;99.90;;;;;;5163829;27;20852;-83
2021/07/24 04:36:35;;;;;;;28.70;23.87;;;17.30;99.90;;;;;;5160510;27;20198;-83
2021/07/24 04:39:04;;;;;;;28.97;25.53;;;17.30;99.90;;;;;;5176227;27;20195;-82
2021/07/24 04:41:33;;;;;;;27.67;24.57;;;17.40;99.90;;;;;;5175072;27;20205;-81
2021/07/24 04:44:03;;;;;;;28.00;23.80;;;17.40;99.90;;;;;;5158977;27;20199;-83
2021/07/24 04:46:32;;;;;;;25.87;22.77;;;17.60;99.90;;;;;;5156495;27;20269;-83
2021/07/24 04:49:01;;;;;;;27.80;23.77;;;17.80;99.90;;;;;;5152977;27;20769;-81
2021/07/24 04:51:30;;;;;;;26.00;22.77;;;17.90;99.90;;;;;;5165233;27;20286;-84
2021/07/24 04:53:59;;;;;;;25.60;22.80;;;18.10;99.90;;;;;;5167504;27;20225;-78
2021/07/24 04:56:28;;;;;;;27.57;23.07;;;18.20;99.90;;;;;;5161402;27;20842;-84
2021/07/24 04:58:57;;;;;;;27.93;24.00;;;18.40;99.90;;;;;;5153094;27;20203;-83
2021/07/24 05:01:28;;;;;;;27.20;23.00;;;18.60;99.90;;;;;;5152282;27;20707;-81
2021/07/24 05:03:58;;;;;;;27.50;22.87;;;18.80;99.90;;;;;;5163452;27;20206;-84
2021/07/24 05:06:27;;;;;;;25.33;22.00;;;19.00;99.90;;;;;;5163014;27;20329;-85
2021/07/24 05:08:56;;;;;;;27.43;22.93;;;19.20;99.90;;;;;;5151556;27;20194;-83
2021/07/24 05:11:25;;;;;;;23.70;20.63;;;19.40;99.90;;;;;;5157900;27;20895;-82
2021/07/24 05:13:54;;;;;;;23.00;20.57;;;19.70;99.50;;;;;;5165409;27;20232;-83
2021/07/24 05:16:23;;;;;;;29.00;22.27;;;19.90;99.10;;;;;;5180765;27;20222;-84
2021/07/24 05:18:54;;;;;;;23.97;20.90;;;20.10;98.00;;;;;;5175785;27;20198;-84
2021/07/24 05:21:22;;;;;;;27.77;22.17;;;20.30;96.60;;;;;;5166827;27;20692;-83
2021/07/24 05:23:51;;;;;;;22.83;20.43;;;20.50;96.50;;;;;;5161505;27;20253;-81
2021/07/24 05:26:20;;;;;;;24.23;21.73;;;20.70;96.10;;;;;;5170028;27;20210;-81
2021/07/24 05:28:49;;;;;;;27.23;21.60;;;20.80;95.20;;;;;;5171863;27;20194;-85
2021/07/24 05:31:20;;;;;;;22.88;20.38;;;20.90;94.00;;;;;;5159890;27;20193;-84
2021/07/24 05:33:50;;;;;;;23.03;20.30;;;21.00;94.10;;;;;;5163727;27;20198;-83
2021/07/24 05:36:21;;;;;;;22.30;20.00;;;21.20;93.60;;;;;;5169601;27;20197;-83
2021/07/24 05:38:49;;;;;;;22.50;20.10;;;21.30;93.60;;;;;;5164216;27;20200;-86
2021/07/24 05:41:18;;;;;;;23.63;19.90;;;21.40;93.40;;;;;;5171984;27;20285;-82
2021/07/24 05:43:50;;;;;;;23.75;20.17;;;21.50;93.20;;;;;;5171779;27;20198;-86
2021/07/24 05:46:20;;;;;;;22.50;19.88;;;21.60;92.80;;;;;;5164993;27;20242;-82
2021/07/24 05:48:48;;;;;;;21.50;19.20;;;21.70;92.60;;;;;;5163820;27;20232;-84
2021/07/24 05:51:19;;;;;;;22.00;19.23;;;21.90;92.20;;;;;;5164073;27;20749;-85
2021/07/24 05:53:49;;;;;;;28.83;19.20;;;22.10;91.90;;;;;;5162260;27;20198;-84
2021/07/24 05:56:17;;;;;;;25.55;19.00;;;22.20;91.00;;;;;;5167772;27;20195;-81
2021/07/24 05:58:46;;;;;;;19.88;17.52;;;22.30;90.70;;;;;;5167852;27;20191;-83
2021/07/24 06:01:15;;;;;;;17.90;16.05;;;22.40;90.50;;;;;;5171333;27;20203;-84
2021/07/24 06:03:44;;;;;;;18.27;16.15;;;22.50;90.20;;;;;;5164641;27;20225;-83
2021/07/24 06:06:12;;;;;;;17.63;15.90;;;22.70;90.10;;;;;;5159587;27;20255;-80
2021/07/24 06:08:43;;;;;;;18.38;15.15;;;22.80;88.70;;;;;;5156821;27;20194;-85
2021/07/24 06:11:11;;;;;;;19.13;16.05;;;22.90;88.50;;;;;;5155596;27;20191;-83
2021/07/24 06:13:40;;;;;;;18.75;16.75;;;22.70;87.70;;;;;;5161135;27;20194;-84
2021/07/24 06:16:10;;;;;;;17.88;15.95;;;22.70;88.90;;;;;;5158198;27;20527;-85
2021/07/24 06:18:39;;;;;;;18.55;15.98;;;22.70;87.70;;;;;;5171043;27;20277;-80
2021/07/24 06:21:14;;;;;;;18.17;16.25;;;22.70;87.30;;;;;;5175660;27;20196;-82
2021/07/24 06:23:45;;;;;;;20.70;16.58;;;22.70;87.20;;;;;;5179999;27;20193;-85
2021/07/24 06:26:14;;;;;;;21.60;15.85;;;22.70;86.80;;;;;;5155693;27;20230;-83
2021/07/24 06:28:43;;;;;;;19.15;16.80;;;22.70;87.00;;;;;;5148962;27;20210;-81
2021/07/24 06:31:12;;;;;;;19.20;15.82;;;22.80;86.70;;;;;;5172079;27;20210;-85
2021/07/24 06:33:40;;;;;;;18.02;15.40;;;22.90;86.30;;;;;;5170466;27;20195;-82
2021/07/24 06:36:09;;;;;;;20.55;15.63;;;22.80;86.30;;;;;;5166743;27;20201;-83
2021/07/24 06:38:38;;;;;;;18.00;14.88;;;22.90;86.20;;;;;;5167971;27;20202;-83
2021/07/24 06:41:08;;;;;;;18.42;14.50;;;23.00;86.20;;;;;;5160878;27;20253;-83
2021/07/24 06:43:40;;;;;;;17.92;14.63;;;23.10;86.10;;;;;;5161305;27;20199;-84
2021/07/24 06:46:10;;;;;;;16.52;13.93;;;23.20;85.20;;;;;;5162686;27;20194;-82
2021/07/24 06:48:39;;;;;;;18.98;15.68;;;23.30;85.50;;;;;;5151572;27;20286;-84
2021/07/24 06:51:10;;;;;;;19.45;14.70;;;23.40;85.50;;;;;;5159267;27;20195;-83
2021/07/24 06:53:39;;;;;;;16.40;14.60;;;23.40;85.60;;;;;;5160592;27;20727;-84
2021/07/24 06:56:11;;;;;;;18.17;13.95;;;23.40;85.30;;;;;;5137244;27;20194;-86
2021/07/24 06:58:43;;;;;;;17.45;14.27;;;23.50;85.20;;;;;;5143022;27;20210;-82
2021/07/24 07:01:12;;;;;;;18.90;14.00;;;23.20;85.10;;;;;;5163037;27;20192;-81
2021/07/24 07:03:41;;;;;;;18.48;13.30;;;23.30;85.20;;;;;;5172872;27;20194;-82
2021/07/24 07:06:13;;;;;;;14.77;12.30;;;23.40;85.00;;;;;;5171016;27;20213;-82
2021/07/24 07:08:43;;;;;;;14.82;12.65;;;23.50;84.90;;;;;;5171469;27;20198;-83
2021/07/24 07:11:13;;;;;;;12.63;11.18;;;23.60;84.60;;;;;;5169696;27;20208;-84
2021/07/24 07:13:42;;;;;;;13.77;12.10;;;23.60;84.60;;;;;;5170095;27;20194;-81
2021/07/24 07:16:12;;;;;;;12.68;11.38;;;23.80;83.70;;;;;;5168937;27;20198;-82
2021/07/24 07:18:41;;;;;;;13.85;11.30;;;23.90;84.20;;;;;;5173888;27;20190;-84
2021/07/24 07:21:11;;;;;;;13.25;11.10;;;24.10;83.30;;;;;;5159688;27;20273;-84
2021/07/24 07:23:40;;;;;;;11.38;10.20;;;24.10;83.30;;;;;;5162631;27;20197;-83
2021/07/24 07:26:39;;;;;;;11.38;10.20;;;24.20;82.60;;;;;;5179363;27;20190;-84
2021/07/24 07:29:08;;;;;;;13.90;9.63;;;24.30;82.20;;;;;;5155355;27;20191;-83
2021/07/24 07:31:37;;;;;;;10.95;9.48;;;24.40;82.70;;;;;;5151569;27;20179;-82
2021/07/24 07:34:07;;;;;;;11.23;9.98;;;24.50;82.00;;;;;;5142360;27;20199;-83
2021/07/24 07:36:36;;;;;;;12.10;10.68;;;24.50;81.80;;;;;;5125420;27;20679;-84
2021/07/24 07:39:05;;;;;;;12.25;10.55;;;24.40;82.30;;;;;;5107890;27;20195;-84
2021/07/24 07:41:35;;;;;;;13.07;9.68;;;24.60;82.60;;;;;;5133502;27;20231;-82
2021/07/24 07:44:08;;;;;;;11.70;9.35;;;24.80;82.40;;;;;;5131428;27;20214;-82
2021/07/24 07:46:37;;;;;;;12.02;9.25;;;25.00;81.30;;;;;;5131050;27;20204;-83
2021/07/24 07:49:06;;;;;;;12.80;9.13;;;24.70;81.30;;;;;;5143788;27;20203;-83
2021/07/24 07:51:36;;;;;;;11.30;10.05;;;24.70;82.00;;;;;;5129222;27;20327;-83
2021/07/24 07:54:05;;;;;;;11.18;9.40;;;24.80;81.90;;;;;;5128437;27;20202;-82
2021/07/24 07:56:34;;;;;;;10.20;9.02;;;24.90;81.20;;;;;;5129707;27;20200;-83
2021/07/24 07:59:03;;;;;;;12.40;9.30;;;24.90;81.50;;;;;;5136952;27;20215;-84
2021/07/24 08:01:34;;;;;;;11.32;9.02;;;25.00;81.60;;;;;;5157841;27;20171;-85
2021/07/24 08:04:04;;;;;;;10.73;9.60;;;25.10;81.40;;;;;;5135046;27;20203;-83
2021/07/24 08:06:33;;;;;;;13.60;9.43;;;25.20;80.90;;;;;;5133679;27;20372;-83
2021/07/24 08:09:06;;;;;;;10.38;9.30;;;25.20;81.00;;;;;;5125939;27;20230;-83
2021/07/24 08:11:35;;;;;;;11.57;9.25;;;25.40;81.00;;;;;;5130045;27;20191;-83
2021/07/24 08:14:04;;;;;;;12.90;9.80;;;25.70;81.10;;;;;;5128413;27;20301;-84
2021/07/24 08:16:35;;;;;;;10.13;9.10;;;25.80;80.20;;;;;;5133385;27;20211;-82
2021/07/24 08:21:49;;;;;;;10.77;9.30;;;25.90;79.80;;;;;;5040640;22;20245;-82
2021/07/24 08:24:18;;;;;;;11.23;9.10;;;26.00;79.60;;;;;;5008987;28;20219;-83
2021/07/24 08:26:47;;;;;;;11.50;9.30;;;25.90;79.90;;;;;;5007884;28;20204;-81
2021/07/24 08:29:18;;;;;;;12.43;9.45;;;26.10;79.30;;;;;;5008701;28;20230;-83
2021/07/24 08:31:48;;;;;;;10.85;9.57;;;26.20;78.10;;;;;;5018233;28;20208;-83
2021/07/24 08:34:16;;;;;;;10.27;9.18;;;26.30;78.10;;;;;;5002058;28;20235;-83
2021/07/24 08:36:45;;;;;;;11.32;9.73;;;26.40;78.30;;;;;;5005722;28;20570;-82
2021/07/24 08:39:14;;;;;;;10.95;9.80;;;26.50;77.70;;;;;;5011896;28;20233;-83
2021/07/24 08:41:43;;;;;;;10.85;9.85;;;26.40;77.00;;;;;;5006929;28;20617;-82
2021/07/24 08:44:12;;;;;;;11.43;9.95;;;26.40;77.40;;;;;;5008183;28;20253;-84
2021/07/24 08:46:41;;;;;;;10.88;9.77;;;26.30;77.90;;;;;;5009856;28;20203;-85
2021/07/24 08:49:13;;;;;;;11.63;10.43;;;26.20;77.60;;;;;;5007728;28;20226;-84
2021/07/24 08:51:43;;;;;;;10.43;9.35;;;26.10;77.10;;;;;;5007947;28;20962;-82
2021/07/24 08:54:12;;;;;;;12.40;9.63;;;26.20;76.70;;;;;;4995647;28;20340;-83
2021/07/24 08:56:46;;;;;;;10.88;8.88;;;26.40;77.10;;;;;;5006039;28;20294;-82
2021/07/24 08:59:17;;;;;;;10.00;8.63;;;26.60;77.60;;;;;;5013143;28;20193;-82
2021/07/24 09:01:52;;;;;;;11.10;9.13;;;26.70;76.70;;;;;;5021215;28;20206;-82
2021/07/24 09:04:24;;;;;;;11.48;9.18;;;26.80;75.80;;;;;;5017545;28;20209;-84
2021/07/24 09:07:00;;;;;;;12.48;9.70;;;26.90;75.50;;;;;;5019476;28;20966;-81
2021/07/24 09:09:30;;;;;;;14.10;9.90;;;26.50;76.40;;;;;;5023689;28;20218;-83
2021/07/24 09:11:59;;;;;;;10.05;9.05;;;26.30;76.20;;;;;;5024094;28;20192;-83
2021/07/24 09:14:28;;;;;;;9.60;8.60;;;26.30;76.00;;;;;;5022703;28;21477;-84
2021/07/24 09:16:57;;;;;;;9.52;8.30;;;26.40;74.90;;;;;;5008793;28;20268;-83
2021/07/24 09:19:31;;;;;;;11.40;8.98;;;26.40;74.40;;;;;;5021070;28;20205;-83
2021/07/24 09:22:00;;;;;;;10.07;8.85;;;26.50;73.30;;;;;;5024912;28;20282;-81
2021/07/24 09:24:33;;;;;;;11.05;8.52;;;26.60;73.50;;;;;;5010607;28;20207;-82
2021/07/24 09:27:02;;;;;;;10.32;9.10;;;26.90;74.10;;;;;;5014239;28;20865;-84
2021/07/24 09:29:39;;;;;;;10.75;9.65;;;27.10;73.40;;;;;;5022320;28;20944;-83
2021/07/24 09:32:10;;;;;;;10.20;9.23;;;27.20;74.30;;;;;;5021585;28;20202;-83
2021/07/24 09:34:41;;;;;;;10.27;9.23;;;27.10;74.70;;;;;;5028392;28;20184;-81
2021/07/24 09:37:24;;;;;;;10.20;9.10;;;27.20;74.70;;;;;;5030655;28;20190;-82
2021/07/24 09:39:54;;;;;;;10.25;9.25;;;27.30;74.30;;;;;;5013448;28;20206;-83
2021/07/24 09:42:31;;;;;;;11.38;9.18;;;27.20;73.70;;;;;;5009925;28;20227;-82
2021/07/24 09:45:07;;;;;;;10.75;9.32;;;27.30;74.10;;;;;;5007147;28;20883;-82
2021/07/24 09:47:36;;;;;;;10.07;9.00;;;27.40;73.50;;;;;;5000867;28;20214;-83
2021/07/24 09:50:14;;;;;;;9.70;8.75;;;27.70;73.40;;;;;;4996848;28;20271;-84
2021/07/24 09:52:47;;;;;;;10.15;8.50;;;27.80;73.00;;;;;;5005927;28;20205;-83
2021/07/24 09:55:29;;;;;;;11.82;9.38;;;28.00;73.00;;;;;;5013534;28;20201;-83
2021/07/24 09:57:58;;;;;;;9.65;8.65;;;28.10;72.60;;;;;;5015404;28;20300;-84
2021/07/24 10:00:30;;;;;;;12.10;8.25;;;27.90;73.40;;;;;;5012540;28;20879;-83
2021/07/24 10:03:01;;;;;;;9.05;8.00;;;27.90;72.50;;;;;;5015972;28;20664;-83
2021/07/24 10:05:35;;;;;;;10.48;8.65;;;27.90;69.60;;;;;;5019860;28;20187;-81
2021/07/24 10:08:10;;;;;;;9.38;8.38;;;27.70;69.80;;;;;;5020265;28;20208;-82
2021/07/24 10:10:40;;;;;;;9.10;7.95;;;27.50;69.90;;;;;;5030705;28;20210;-84
2021/07/24 10:13:10;;;;;;;9.52;7.80;;;27.30;69.20;;;;;;5016839;28;20195;-82
2021/07/24 10:15:40;;;;;;;10.32;8.43;;;27.10;69.50;;;;;;5015328;28;20210;-82
2021/07/24 10:18:10;;;;;;;9.52;8.57;;;26.90;71.10;;;;;;5016297;28;20202;-83
2021/07/24 10:20:42;;;;;;;9.77;8.50;;;26.60;70.40;;;;;;5028312;28;20214;-81
2021/07/24 10:23:12;;;;;;;9.27;7.93;;;26.60;70.90;;;;;;5022467;28;20196;-82
2021/07/24 10:25:48;;;;;;;9.75;8.13;;;26.50;71.50;;;;;;5019915;28;20440;-82
2021/07/24 10:28:30;;;;;;;9.38;8.48;;;26.30;72.30;;;;;;5008400;28;20208;-83
2021/07/24 10:31:06;;;;;;;9.57;7.85;;;26.00;72.20;;;;;;5013860;28;20203;-82
2021/07/24 10:33:36;;;;;;;9.82;8.20;;;25.90;72.80;;;;;;5015620;28;20195;-82
2021/07/24 10:36:16;;;;;;;13.70;10.32;;;25.70;72.80;;;;;;5017393;28;21044;-83
2021/07/24 10:38:59;;;;;;;13.98;11.75;;;25.50;74.30;;;;;;5018780;28;20203;-84
2021/07/24 10:41:39;;;;;;;14.15;10.75;;;25.20;74.60;;;;;;5029192;28;20198;-83
2021/07/24 10:44:14;;;;;;;16.73;11.55;;;24.90;75.90;;;;;;5022685;28;20199;-85
2021/07/24 10:47:14;;;;;;;17.65;10.93;;;24.60;76.30;;;;;;5022601;28;20205;-81
2021/07/24 10:50:05;;;;;;;12.02;10.57;;;24.70;77.10;;;;;;5010664;28;20245;-83
2021/07/24 10:53:08;;;;;;;13.50;11.27;;;24.80;76.70;;;;;;5018105;28;20895;-83
2021/07/24 10:55:48;;;;;;;13.55;12.02;;;24.90;77.00;;;;;;5012880;28;20187;-85
2021/07/24 10:58:18;;;;;;;13.60;11.25;;;24.90;76.50;;;;;;5008363;28;20199;-83
2021/07/24 11:00:59;;;;;;;13.98;11.73;;;24.90;76.60;;;;;;5010235;28;20207;-82
2021/07/24 11:03:43;;;;;;;12.68;11.40;;;24.80;77.20;;;;;;5012644;28;20739;-81
2021/07/24 11:06:36;;;;;;;13.68;12.27;;;24.60;77.80;;;;;;5017826;28;20340;-84
2021/07/24 11:09:17;;;;;;;15.05;11.77;;;24.70;77.70;;;;;;4989186;28;20459;-84
2021/07/24 11:11:48;;;;;;;12.60;11.40;;;24.60;77.80;;;;;;5026398;28;20218;-83
2021/07/24 11:14:58;;;;;;;12.20;11.00;;;24.60;78.00;;;;;;5011480;28;20191;-82
2021/07/24 11:17:28;;;;;;;12.32;10.85;;;24.60;77.90;;;;;;5014400;28;20294;-81
2021/07/24 11:20:29;;;;;;;13.23;11.52;;;24.90;78.20;;;;;;5006048;28;20191;-83
2021/07/24 11:23:06;;;;;;;13.80;11.15;;;25.10;78.60;;;;;;5018048;28;20237;-81
2021/07/24 11:25:40;;;;;;;16.80;11.68;;;25.40;78.40;;;;;;5012527;28;20199;-84
2021/07/24 11:28:17;;;;;;;12.02;10.70;;;25.60;78.70;;;;;;5019603;28;20185;-81
2021/07/24 11:30:56;;;;;;;14.73;10.88;;;25.90;77.80;;;;;;5023867;28;20223;-83
2021/07/24 11:33:29;;;;;;;12.65;10.43;;;25.80;77.30;;;;;;5014412;28;20195;-83
2021/07/24 11:36:08;;;;;;;11.95;9.70;;;25.50;77.60;;;;;;5025672;28;20211;-81
2021/07/24 11:38:40;;;;;;;12.25;10.95;;;25.40;77.80;;;;;;5039453;28;20188;-83
2021/07/24 11:41:12;;;;;;;12.27;10.63;;;25.30;77.80;;;;;;5027219;28;20219;-82
2021/07/24 11:43:42;;;;;;;12.18;10.88;;;25.30;78.80;;;;;;5024145;28;20207;-84
2021/07/24 11:46:14;;;;;;;12.98;11.15;;;25.40;78.40;;;;;;5035334;28;20179;-82
2021/07/24 11:48:44;;;;;;;11.65;10.27;;;25.40;78.00;;;;;;5031776;28;20200;-84
2021/07/24 11:51:15;;;;;;;11.68;10.52;;;25.60;77.70;;;;;;5024168;28;20256;-83
2021/07/24 11:53:44;;;;;;;14.38;10.68;;;25.60;77.90;;;;;;5031959;28;20229;-82
2021/07/24 11:56:20;;;;;;;13.07;10.57;;;25.80;77.70;;;;;;5028190;28;20200;-84
2021/07/24 11:58:55;;;;;;;12.95;10.55;;;25.50;76.90;;;;;;5032275;28;20211;-83
2021/07/24 12:01:26;;;;;;;11.95;10.65;;;25.50;76.90;;;;;;5019977;28;20564;-83
2021/07/24 12:04:06;;;;;;;13.55;10.95;;;25.40;77.40;;;;;;5035875;28;20288;-83
2021/07/24 12:06:38;;;;;;;12.80;10.43;;;25.70;78.20;;;;;;5032579;28;20215;-83
2021/07/24 12:09:09;;;;;;;14.20;11.25;;;26.10;77.50;;;;;;5040979;28;20201;-84
2021/07/24 12:11:41;;;;;;;12.00;10.80;;;26.10;77.30;;;;;;5034495;28;20187;-82
2021/07/24 12:14:10;;;;;;;12.88;10.70;;;26.00;78.00;;;;;;5037054;28;20654;-83
2021/07/24 12:16:40;;;;;;;11.98;10.18;;;26.00;77.30;;;;;;5037261;28;20255;-82
2021/07/24 12:19:15;;;;;;;12.13;10.38;;;25.80;77.70;;;;;;5038128;28;20256;-83
2021/07/24 12:21:45;;;;;;;11.50;10.30;;;25.90;76.90;;;;;;5040792;28;20640;-82
2021/07/24 12:24:25;;;;;;;12.98;10.13;;;25.80;76.30;;;;;;5036456;28;20175;-82
2021/07/24 12:27:11;;;;;;;12.05;10.25;;;25.70;76.40;;;;;;5039003;28;20205;-82
2021/07/24 12:30:04;;;;;;;12.10;10.60;;;25.80;77.30;;;;;;5031856;28;20702;-84
2021/07/24 12:32:40;;;;;;;12.57;11.07;;;25.90;77.10;;;;;;5014461;28;20208;-82
2021/07/24 12:35:15;;;;;;;11.70;10.50;;;25.70;76.70;;;;;;5039393;28;20201;-83
2021/07/24 12:37:44;;;;;;;13.98;10.77;;;25.60;77.60;;;;;;5030873;28;20213;-83
2021/07/24 12:40:14;;;;;;;11.38;10.20;;;25.70;77.10;;;;;;5029223;28;20243;-83
2021/07/24 12:42:48;;;;;;;13.45;10.43;;;25.80;77.00;;;;;;5015041;28;20357;-84
2021/07/24 12:45:30;;;;;;;11.13;9.93;;;25.80;77.00;;;;;;5031307;28;20180;-84
2021/07/24 12:48:17;;;;;;;10.85;9.75;;;26.00;76.50;;;;;;5029502;28;21480;-83
2021/07/24 12:51:08;;;;;;;11.50;9.55;;;26.20;76.30;;;;;;5028552;28;20227;-82
2021/07/24 12:53:37;;;;;;;11.70;10.10;;;26.60;76.50;;;;;;5031445;28;20188;-84
2021/07/24 12:56:06;;;;;;;11.63;9.95;;;26.80;76.20;;;;;;5034474;28;20700;-82
2021/07/24 12:58:43;;;;;;;11.27;10.18;;;27.00;75.80;;;;;;5022434;28;20258;-83